sensor_id;sensor_type;location;lat;lon;timestamp;temperature;humidity
62912;DHT22;49111;51.028;4.218;2022-08-03T00:01:43;22.50;94.50
62912;DHT22;49111;51.028;4.218;2022-08-03T00:04:10;22.50;94.60
62912;DHT22;49111;51.028;4.218;2022-08-03T00:06:36;22.50;94.50
62912;DHT22;49111;51.028;4.218;2022-08-03T00:09:04;22.40;94.60
62912;DHT22;49111;51.028;4.218;2022-08-03T00:11:30;22.40;94.50
62912;DHT22;49111;51.028;4.218;2022-08-03T00:13:56;22.40;94.60
62912;DHT22;49111;51.028;4.218;2022-08-03T00:16:21;22.40;94.60
62912;DHT22;49111;51.028;4.218;2022-08-03T00:18:49;22.40;94.60
62912;DHT22;49111;51.028;4.218;2022-08-03T00:21:15;22.40;94.50
62912;DHT22;49111;51.028;4.218;2022-08-03T00:23:41;22.30;94.60
62912;DHT22;49111;51.028;4.218;2022-08-03T00:26:06;22.30;94.70
62912;DHT22;49111;51.028;4.218;2022-08-03T00:28:32;22.20;94.70
62912;DHT22;49111;51.028;4.218;2022-08-03T00:30:58;22.20;94.90
62912;DHT22;49111;51.028;4.218;2022-08-03T00:33:24;22.20;94.90
62912;DHT22;49111;51.028;4.218;2022-08-03T00:35:51;22.10;95.00
62912;DHT22;49111;51.028;4.218;2022-08-03T00:38:18;22.10;95.00
62912;DHT22;49111;51.028;4.218;2022-08-03T00:40:43;22.10;95.10
62912;DHT22;49111;51.028;4.218;2022-08-03T00:43:09;22.00;95.20
62912;DHT22;49111;51.028;4.218;2022-08-03T00:45:38;22.00;95.20
62912;DHT22;49111;51.028;4.218;2022-08-03T00:48:05;21.90;95.30
62912;DHT22;49111;51.028;4.218;2022-08-03T00:50:34;21.90;95.30
62912;DHT22;49111;51.028;4.218;2022-08-03T00:53:02;21.80;95.40
62912;DHT22;49111;51.028;4.218;2022-08-03T00:55:29;21.70;95.60
62912;DHT22;49111;51.028;4.218;2022-08-03T00:57:55;21.70;95.70
62912;DHT22;49111;51.028;4.218;2022-08-03T01:00:24;21.60;95.80
62912;DHT22;49111;51.028;4.218;2022-08-03T01:02:51;21.60;95.90
62912;DHT22;49111;51.028;4.218;2022-08-03T01:05:19;21.60;96.00
62912;DHT22;49111;51.028;4.218;2022-08-03T01:08:10;21.50;96.10
62912;DHT22;49111;51.028;4.218;2022-08-03T01:10:51;21.50;96.20
62912;DHT22;49111;51.028;4.218;2022-08-03T01:13:33;21.40;96.10
62912;DHT22;49111;51.028;4.218;2022-08-03T01:16:23;21.40;96.20
62912;DHT22;49111;51.028;4.218;2022-08-03T01:18:55;21.30;96.30
62912;DHT22;49111;51.028;4.218;2022-08-03T01:27:09;21.20;96.50
62912;DHT22;49111;51.028;4.218;2022-08-03T01:32:18;21.20;96.60
62912;DHT22;49111;51.028;4.218;2022-08-03T01:34:57;21.20;96.50
62912;DHT22;49111;51.028;4.218;2022-08-03T01:37:30;21.20;96.60
62912;DHT22;49111;51.028;4.218;2022-08-03T01:39:57;21.20;96.60
62912;DHT22;49111;51.028;4.218;2022-08-03T01:42:27;21.10;96.70
62912;DHT22;49111;51.028;4.218;2022-08-03T01:44:55;21.00;96.80
62912;DHT22;49111;51.028;4.218;2022-08-03T01:47:22;21.00;96.90
62912;DHT22;49111;51.028;4.218;2022-08-03T01:49:48;20.90;96.90
62912;DHT22;49111;51.028;4.218;2022-08-03T01:52:17;20.90;97.00
62912;DHT22;49111;51.028;4.218;2022-08-03T01:54:47;20.90;97.00
62912;DHT22;49111;51.028;4.218;2022-08-03T01:57:14;20.90;97.10
62912;DHT22;49111;51.028;4.218;2022-08-03T01:59:41;20.90;97.10
62912;DHT22;49111;51.028;4.218;2022-08-03T02:02:13;20.80;97.10
62912;DHT22;49111;51.028;4.218;2022-08-03T02:04:41;20.80;97.10
62912;DHT22;49111;51.028;4.218;2022-08-03T02:07:09;20.80;97.30
62912;DHT22;49111;51.028;4.218;2022-08-03T02:09:39;20.90;97.20
62912;DHT22;49111;51.028;4.218;2022-08-03T02:12:10;20.90;97.20
62912;DHT22;49111;51.028;4.218;2022-08-03T02:14:38;20.90;97.10
62912;DHT22;49111;51.028;4.218;2022-08-03T02:17:06;20.90;97.20
62912;DHT22;49111;51.028;4.218;2022-08-03T02:19:33;20.90;97.20
62912;DHT22;49111;51.028;4.218;2022-08-03T02:22:00;20.80;97.20
62912;DHT22;49111;51.028;4.218;2022-08-03T02:24:26;20.80;97.40
62912;DHT22;49111;51.028;4.218;2022-08-03T02:26:55;20.80;97.30
62912;DHT22;49111;51.028;4.218;2022-08-03T02:29:25;20.80;97.30
62912;DHT22;49111;51.028;4.218;2022-08-03T02:31:54;20.70;97.40
62912;DHT22;49111;51.028;4.218;2022-08-03T02:34:24;20.70;97.50
62912;DHT22;49111;51.028;4.218;2022-08-03T02:36:52;20.70;97.50
62912;DHT22;49111;51.028;4.218;2022-08-03T02:39:20;20.70;97.50
62912;DHT22;49111;51.028;4.218;2022-08-03T02:41:51;20.70;97.50
62912;DHT22;49111;51.028;4.218;2022-08-03T02:44:23;20.60;97.60
62912;DHT22;49111;51.028;4.218;2022-08-03T02:46:53;20.60;97.50
62912;DHT22;49111;51.028;4.218;2022-08-03T02:49:20;20.60;97.50
62912;DHT22;49111;51.028;4.218;2022-08-03T02:51:48;20.60;97.60
62912;DHT22;49111;51.028;4.218;2022-08-03T02:54:16;20.60;97.50
62912;DHT22;49111;51.028;4.218;2022-08-03T02:56:44;20.60;97.50
62912;DHT22;49111;51.028;4.218;2022-08-03T02:59:11;20.60;97.60
62912;DHT22;49111;51.028;4.218;2022-08-03T03:01:38;20.60;97.60
62912;DHT22;49111;51.028;4.218;2022-08-03T03:04:05;20.50;97.60
62912;DHT22;49111;51.028;4.218;2022-08-03T03:06:32;20.50;97.70
62912;DHT22;49111;51.028;4.218;2022-08-03T03:08:58;20.50;97.70
62912;DHT22;49111;51.028;4.218;2022-08-03T03:11:28;20.50;97.60
62912;DHT22;49111;51.028;4.218;2022-08-03T03:13:56;20.50;97.60
62912;DHT22;49111;51.028;4.218;2022-08-03T03:16:22;20.50;97.70
62912;DHT22;49111;51.028;4.218;2022-08-03T03:18:50;20.40;97.70
62912;DHT22;49111;51.028;4.218;2022-08-03T03:21:18;20.40;97.80
62912;DHT22;49111;51.028;4.218;2022-08-03T03:23:45;20.40;97.80
62912;DHT22;49111;51.028;4.218;2022-08-03T03:26:13;20.30;98.00
62912;DHT22;49111;51.028;4.218;2022-08-03T03:28:39;20.30;98.10
62912;DHT22;49111;51.028;4.218;2022-08-03T03:31:06;20.20;98.20
62912;DHT22;49111;51.028;4.218;2022-08-03T03:33:36;20.20;98.20
62912;DHT22;49111;51.028;4.218;2022-08-03T03:36:02;20.10;98.30
62912;DHT22;49111;51.028;4.218;2022-08-03T03:38:29;20.10;98.30
62912;DHT22;49111;51.028;4.218;2022-08-03T03:40:55;20.10;98.40
62912;DHT22;49111;51.028;4.218;2022-08-03T03:43:22;19.90;98.60
62912;DHT22;49111;51.028;4.218;2022-08-03T03:45:48;20.00;98.60
62912;DHT22;49111;51.028;4.218;2022-08-03T03:48:19;19.90;98.60
62912;DHT22;49111;51.028;4.218;2022-08-03T03:50:45;19.90;98.60
62912;DHT22;49111;51.028;4.218;2022-08-03T03:53:12;19.90;98.60
62912;DHT22;49111;51.028;4.218;2022-08-03T03:55:39;19.90;98.70
62912;DHT22;49111;51.028;4.218;2022-08-03T03:58:05;19.90;98.70
62912;DHT22;49111;51.028;4.218;2022-08-03T04:00:31;19.90;98.80
62912;DHT22;49111;51.028;4.218;2022-08-03T04:02:57;19.90;98.80
62912;DHT22;49111;51.028;4.218;2022-08-03T04:05:23;19.80;98.80
62912;DHT22;49111;51.028;4.218;2022-08-03T04:08:17;19.80;99.00
62912;DHT22;49111;51.028;4.218;2022-08-03T04:11:18;19.70;99.00
62912;DHT22;49111;51.028;4.218;2022-08-03T04:16:14;19.70;99.10
62912;DHT22;49111;51.028;4.218;2022-08-03T04:18:44;19.70;99.30
62912;DHT22;49111;51.028;4.218;2022-08-03T04:21:14;19.70;99.10
62912;DHT22;49111;51.028;4.218;2022-08-03T04:23:45;19.70;99.20
62912;DHT22;49111;51.028;4.218;2022-08-03T04:26:13;19.60;99.20
62912;DHT22;49111;51.028;4.218;2022-08-03T04:28:41;19.60;99.20
62912;DHT22;49111;51.028;4.218;2022-08-03T04:31:09;19.60;99.30
62912;DHT22;49111;51.028;4.218;2022-08-03T04:33:36;19.60;99.30
62912;DHT22;49111;51.028;4.218;2022-08-03T04:36:05;19.60;99.50
62912;DHT22;49111;51.028;4.218;2022-08-03T04:38:37;19.70;99.50
62912;DHT22;49111;51.028;4.218;2022-08-03T04:41:06;19.70;99.50
62912;DHT22;49111;51.028;4.218;2022-08-03T04:43:32;19.60;99.60
62912;DHT22;49111;51.028;4.218;2022-08-03T04:46:00;19.70;99.50
62912;DHT22;49111;51.028;4.218;2022-08-03T04:48:27;19.70;99.60
62912;DHT22;49111;51.028;4.218;2022-08-03T04:50:53;19.70;99.60
62912;DHT22;49111;51.028;4.218;2022-08-03T04:53:18;19.70;99.60
62912;DHT22;49111;51.028;4.218;2022-08-03T04:55:44;19.70;99.70
62912;DHT22;49111;51.028;4.218;2022-08-03T04:58:10;19.70;99.90
62912;DHT22;49111;51.028;4.218;2022-08-03T05:00:37;19.70;99.80
62912;DHT22;49111;51.028;4.218;2022-08-03T05:03:03;19.70;99.90
62912;DHT22;49111;51.028;4.218;2022-08-03T05:05:28;19.70;99.80
62912;DHT22;49111;51.028;4.218;2022-08-03T05:07:54;19.70;99.90
62912;DHT22;49111;51.028;4.218;2022-08-03T05:10:20;19.70;99.90
62912;DHT22;49111;51.028;4.218;2022-08-03T05:12:47;19.70;99.90
62912;DHT22;49111;51.028;4.218;2022-08-03T05:15:13;19.70;99.90
62912;DHT22;49111;51.028;4.218;2022-08-03T05:17:39;19.70;99.90
62912;DHT22;49111;51.028;4.218;2022-08-03T05:20:19;19.70;99.90
62912;DHT22;49111;51.028;4.218;2022-08-03T05:22:45;19.80;99.90
62912;DHT22;49111;51.028;4.218;2022-08-03T05:25:11;19.80;99.90
62912;DHT22;49111;51.028;4.218;2022-08-03T05:27:37;19.80;99.90
62912;DHT22;49111;51.028;4.218;2022-08-03T05:30:03;19.90;99.90
62912;DHT22;49111;51.028;4.218;2022-08-03T05:32:29;19.90;99.90
62912;DHT22;49111;51.028;4.218;2022-08-03T05:34:55;19.90;99.90
62912;DHT22;49111;51.028;4.218;2022-08-03T05:37:20;20.00;99.90
62912;DHT22;49111;51.028;4.218;2022-08-03T05:39:46;20.00;99.90
62912;DHT22;49111;51.028;4.218;2022-08-03T05:42:14;20.00;99.90
62912;DHT22;49111;51.028;4.218;2022-08-03T05:44:40;20.10;99.90
62912;DHT22;49111;51.028;4.218;2022-08-03T05:47:06;20.10;99.90
62912;DHT22;49111;51.028;4.218;2022-08-03T05:49:32;20.20;99.90
62912;DHT22;49111;51.028;4.218;2022-08-03T05:51:58;20.20;99.90
62912;DHT22;49111;51.028;4.218;2022-08-03T05:54:23;20.30;99.90
62912;DHT22;49111;51.028;4.218;2022-08-03T05:56:49;20.30;99.90
62912;DHT22;49111;51.028;4.218;2022-08-03T05:59:15;20.40;99.90
62912;DHT22;49111;51.028;4.218;2022-08-03T06:01:41;20.40;99.90
62912;DHT22;49111;51.028;4.218;2022-08-03T06:04:06;20.50;99.90
62912;DHT22;49111;51.028;4.218;2022-08-03T06:06:32;20.50;99.90
62912;DHT22;49111;51.028;4.218;2022-08-03T06:08:58;20.60;99.90
62912;DHT22;49111;51.028;4.218;2022-08-03T06:11:24;20.80;99.90
62912;DHT22;49111;51.028;4.218;2022-08-03T06:13:49;20.80;99.50
62912;DHT22;49111;51.028;4.218;2022-08-03T06:16:15;20.90;99.60
62912;DHT22;49111;51.028;4.218;2022-08-03T06:18:41;20.90;99.80
62912;DHT22;49111;51.028;4.218;2022-08-03T06:21:07;21.00;99.50
62912;DHT22;49111;51.028;4.218;2022-08-03T06:23:33;21.10;99.50
62912;DHT22;49111;51.028;4.218;2022-08-03T06:25:59;21.10;99.60
62912;DHT22;49111;51.028;4.218;2022-08-03T06:28:24;21.10;99.80
62912;DHT22;49111;51.028;4.218;2022-08-03T06:30:50;21.10;99.70
62912;DHT22;49111;51.028;4.218;2022-08-03T06:33:16;21.20;99.70
62912;DHT22;49111;51.028;4.218;2022-08-03T06:35:41;21.20;99.60
62912;DHT22;49111;51.028;4.218;2022-08-03T06:38:07;21.40;99.40
62912;DHT22;49111;51.028;4.218;2022-08-03T06:40:35;21.40;99.30
62912;DHT22;49111;51.028;4.218;2022-08-03T06:43:05;21.50;99.10
62912;DHT22;49111;51.028;4.218;2022-08-03T06:45:31;21.60;99.00
62912;DHT22;49111;51.028;4.218;2022-08-03T06:48:03;21.70;98.70
62912;DHT22;49111;51.028;4.218;2022-08-03T06:50:31;21.70;98.80
62912;DHT22;49111;51.028;4.218;2022-08-03T06:52:57;21.80;98.70
62912;DHT22;49111;51.028;4.218;2022-08-03T06:55:23;21.90;98.70
62912;DHT22;49111;51.028;4.218;2022-08-03T06:57:49;22.00;98.10
62912;DHT22;49111;51.028;4.218;2022-08-03T07:00:15;22.10;98.00
62912;DHT22;49111;51.028;4.218;2022-08-03T07:02:41;22.10;98.00
62912;DHT22;49111;51.028;4.218;2022-08-03T07:05:08;22.30;97.50
62912;DHT22;49111;51.028;4.218;2022-08-03T07:07:34;22.40;96.80
62912;DHT22;49111;51.028;4.218;2022-08-03T07:10:00;22.50;97.00
62912;DHT22;49111;51.028;4.218;2022-08-03T07:12:26;22.40;96.80
62912;DHT22;49111;51.028;4.218;2022-08-03T07:14:53;22.50;97.00
62912;DHT22;49111;51.028;4.218;2022-08-03T07:17:19;22.60;96.60
62912;DHT22;49111;51.028;4.218;2022-08-03T07:19:45;22.60;96.50
62912;DHT22;49111;51.028;4.218;2022-08-03T07:22:11;22.60;96.40
62912;DHT22;49111;51.028;4.218;2022-08-03T07:24:37;22.70;96.30
62912;DHT22;49111;51.028;4.218;2022-08-03T07:27:03;22.70;96.20
62912;DHT22;49111;51.028;4.218;2022-08-03T07:29:29;22.60;96.40
62912;DHT22;49111;51.028;4.218;2022-08-03T07:31:54;22.70;96.40
62912;DHT22;49111;51.028;4.218;2022-08-03T07:34:20;22.70;96.50
62912;DHT22;49111;51.028;4.218;2022-08-03T07:36:46;22.70;96.60
62912;DHT22;49111;51.028;4.218;2022-08-03T07:39:12;22.90;95.90
62912;DHT22;49111;51.028;4.218;2022-08-03T07:41:37;23.10;95.60
62912;DHT22;49111;51.028;4.218;2022-08-03T07:44:03;23.10;95.70
62912;DHT22;49111;51.028;4.218;2022-08-03T07:46:29;23.10;95.70
62912;DHT22;49111;51.028;4.218;2022-08-03T07:48:55;23.00;95.90
62912;DHT22;49111;51.028;4.218;2022-08-03T07:51:20;23.10;96.10
62912;DHT22;49111;51.028;4.218;2022-08-03T07:53:46;23.20;95.60
62912;DHT22;49111;51.028;4.218;2022-08-03T07:56:12;23.30;95.30
62912;DHT22;49111;51.028;4.218;2022-08-03T07:58:38;23.40;95.20
62912;DHT22;49111;51.028;4.218;2022-08-03T08:01:03;23.30;95.30
62912;DHT22;49111;51.028;4.218;2022-08-03T08:03:29;23.30;95.40
62912;DHT22;49111;51.028;4.218;2022-08-03T08:05:55;23.50;94.90
62912;DHT22;49111;51.028;4.218;2022-08-03T08:08:21;23.60;94.80
62912;DHT22;49111;51.028;4.218;2022-08-03T08:10:47;23.80;94.30
62912;DHT22;49111;51.028;4.218;2022-08-03T08:13:13;23.80;94.40
62912;DHT22;49111;51.028;4.218;2022-08-03T08:15:39;23.80;94.20
62912;DHT22;49111;51.028;4.218;2022-08-03T08:18:05;23.90;94.00
62912;DHT22;49111;51.028;4.218;2022-08-03T08:20:33;23.90;94.00
62912;DHT22;49111;51.028;4.218;2022-08-03T08:23:01;23.90;93.80
62912;DHT22;49111;51.028;4.218;2022-08-03T08:25:29;24.00;93.80
62912;DHT22;49111;51.028;4.218;2022-08-03T08:27:56;24.10;93.80
62912;DHT22;49111;51.028;4.218;2022-08-03T08:30:22;24.20;93.40
62912;DHT22;49111;51.028;4.218;2022-08-03T08:32:49;24.40;93.10
62912;DHT22;49111;51.028;4.218;2022-08-03T08:35:16;24.40;93.30
62912;DHT22;49111;51.028;4.218;2022-08-03T10:14:31;26.00;90.00
62912;DHT22;49111;51.028;4.218;2022-08-03T10:16:57;26.10;90.20
62912;DHT22;49111;51.028;4.218;2022-08-03T10:19:23;26.30;90.30
62912;DHT22;49111;51.028;4.218;2022-08-03T10:21:56;26.60;89.70
62912;DHT22;49111;51.028;4.218;2022-08-03T10:24:28;26.90;86.50
62912;DHT22;49111;51.028;4.218;2022-08-03T10:27:03;27.20;87.00
62912;DHT22;49111;51.028;4.218;2022-08-03T10:29:38;27.40;86.70
62912;DHT22;49111;51.028;4.218;2022-08-03T10:32:09;27.60;85.10
62912;DHT22;49111;51.028;4.218;2022-08-03T10:34:39;27.80;85.20
62912;DHT22;49111;51.028;4.218;2022-08-03T10:37:10;28.10;83.80
62912;DHT22;49111;51.028;4.218;2022-08-03T10:39:37;28.30;83.10
62912;DHT22;49111;51.028;4.218;2022-08-03T10:42:20;28.40;81.40
62912;DHT22;49111;51.028;4.218;2022-08-03T10:44:49;28.60;81.00
62912;DHT22;49111;51.028;4.218;2022-08-03T10:47:16;28.80;80.50
62912;DHT22;49111;51.028;4.218;2022-08-03T10:49:42;29.00;79.70
62912;DHT22;49111;51.028;4.218;2022-08-03T10:52:10;29.00;80.60
62912;DHT22;49111;51.028;4.218;2022-08-03T10:57:02;29.10;79.40
62912;DHT22;49111;51.028;4.218;2022-08-03T11:02:15;29.40;80.30
62912;DHT22;49111;51.028;4.218;2022-08-03T11:04:42;29.50;78.30
62912;DHT22;49111;51.028;4.218;2022-08-03T11:07:21;29.50;78.40
62912;DHT22;49111;51.028;4.218;2022-08-03T11:09:54;29.70;78.40
62912;DHT22;49111;51.028;4.218;2022-08-03T11:12:31;29.80;78.10
62912;DHT22;49111;51.028;4.218;2022-08-03T11:15:07;29.90;76.90
62912;DHT22;49111;51.028;4.218;2022-08-03T11:17:34;29.90;77.10
62912;DHT22;49111;51.028;4.218;2022-08-03T11:20:01;29.90;76.40
62912;DHT22;49111;51.028;4.218;2022-08-03T11:22:47;30.00;76.20
62912;DHT22;49111;51.028;4.218;2022-08-03T11:25:13;30.20;75.10
62912;DHT22;49111;51.028;4.218;2022-08-03T11:27:40;30.40;74.20
62912;DHT22;49111;51.028;4.218;2022-08-03T11:30:22;30.60;73.70
62912;DHT22;49111;51.028;4.218;2022-08-03T11:32:53;30.70;74.90
62912;DHT22;49111;51.028;4.218;2022-08-03T11:35:29;30.70;72.80
62912;DHT22;49111;51.028;4.218;2022-08-03T11:40:46;30.90;72.70
62912;DHT22;49111;51.028;4.218;2022-08-03T11:46:00;31.10;72.20
62912;DHT22;49111;51.028;4.218;2022-08-03T11:48:37;31.20;71.10
62912;DHT22;49111;51.028;4.218;2022-08-03T11:51:17;31.20;72.00
62912;DHT22;49111;51.028;4.218;2022-08-03T11:53:43;31.20;71.10
62912;DHT22;49111;51.028;4.218;2022-08-03T11:56:12;31.30;71.30
62912;DHT22;49111;51.028;4.218;2022-08-03T11:58:45;31.40;70.20
62912;DHT22;49111;51.028;4.218;2022-08-03T12:01:12;31.70;69.80
62912;DHT22;49111;51.028;4.218;2022-08-03T12:03:38;31.90;68.80
62912;DHT22;49111;51.028;4.218;2022-08-03T12:06:11;32.00;70.40
62912;DHT22;49111;51.028;4.218;2022-08-03T12:08:39;32.20;71.10
62912;DHT22;49111;51.028;4.218;2022-08-03T12:11:06;32.40;67.70
62912;DHT22;49111;51.028;4.218;2022-08-03T12:13:51;32.30;67.20
62912;DHT22;49111;51.028;4.218;2022-08-03T12:16:18;32.20;67.60
62912;DHT22;49111;51.028;4.218;2022-08-03T12:18:45;32.20;67.10
62912;DHT22;49111;51.028;4.218;2022-08-03T12:21:18;32.10;67.10
62912;DHT22;49111;51.028;4.218;2022-08-03T12:23:48;32.00;67.50
62912;DHT22;49111;51.028;4.218;2022-08-03T12:26:14;31.90;68.90
62912;DHT22;49111;51.028;4.218;2022-08-03T12:28:47;31.90;67.00
62912;DHT22;49111;51.028;4.218;2022-08-03T12:31:13;32.00;67.20
62912;DHT22;49111;51.028;4.218;2022-08-03T12:34:02;32.00;67.00
62912;DHT22;49111;51.028;4.218;2022-08-03T12:36:30;32.00;67.60
62912;DHT22;49111;51.028;4.218;2022-08-03T12:39:07;31.90;67.10
62912;DHT22;49111;51.028;4.218;2022-08-03T12:41:35;32.00;67.60
62912;DHT22;49111;51.028;4.218;2022-08-03T12:44:03;32.10;66.60
62912;DHT22;49111;51.028;4.218;2022-08-03T12:46:40;32.40;66.10
62912;DHT22;49111;51.028;4.218;2022-08-03T12:49:12;32.70;64.60
62912;DHT22;49111;51.028;4.218;2022-08-03T12:54:16;32.70;64.80
62912;DHT22;49111;51.028;4.218;2022-08-03T12:57:03;32.90;65.00
62912;DHT22;49111;51.028;4.218;2022-08-03T12:59:34;32.70;64.10
62912;DHT22;49111;51.028;4.218;2022-08-03T13:02:04;32.60;64.10
62912;DHT22;49111;51.028;4.218;2022-08-03T13:04:31;32.40;64.60
62912;DHT22;49111;51.028;4.218;2022-08-03T13:07:07;32.10;64.10
62912;DHT22;49111;51.028;4.218;2022-08-03T13:12:13;32.00;65.50
62912;DHT22;49111;51.028;4.218;2022-08-03T13:14:43;32.30;64.00
62912;DHT22;49111;51.028;4.218;2022-08-03T13:17:09;32.60;63.60
62912;DHT22;49111;51.028;4.218;2022-08-03T13:19:37;33.00;62.40
62912;DHT22;49111;51.028;4.218;2022-08-03T13:22:17;33.20;64.20
62912;DHT22;49111;51.028;4.218;2022-08-03T13:24:44;33.70;63.80
62912;DHT22;49111;51.028;4.218;2022-08-03T13:27:11;33.80;60.80
62912;DHT22;49111;51.028;4.218;2022-08-03T13:29:37;33.70;60.80
62912;DHT22;49111;51.028;4.218;2022-08-03T13:32:04;33.60;61.10
62912;DHT22;49111;51.028;4.218;2022-08-03T13:34:30;33.50;63.40
62912;DHT22;49111;51.028;4.218;2022-08-03T13:36:56;33.60;62.00
62912;DHT22;49111;51.028;4.218;2022-08-03T13:39:22;33.70;63.90
62912;DHT22;49111;51.028;4.218;2022-08-03T13:41:48;33.80;63.40
62912;DHT22;49111;51.028;4.218;2022-08-03T13:44:14;34.00;60.80
62912;DHT22;49111;51.028;4.218;2022-08-03T13:46:40;34.20;61.50
62912;DHT22;49111;51.028;4.218;2022-08-03T13:49:06;34.30;60.80
62912;DHT22;49111;51.028;4.218;2022-08-03T13:51:32;33.90;60.70
62912;DHT22;49111;51.028;4.218;2022-08-03T13:53:58;33.40;60.70
62912;DHT22;49111;51.028;4.218;2022-08-03T13:56:28;33.20;61.90
62912;DHT22;49111;51.028;4.218;2022-08-03T13:58:55;33.10;62.10
62912;DHT22;49111;51.028;4.218;2022-08-03T14:01:21;33.10;60.80
62912;DHT22;49111;51.028;4.218;2022-08-03T14:03:47;33.10;61.20
62912;DHT22;49111;51.028;4.218;2022-08-03T14:06:17;33.30;63.20
62912;DHT22;49111;51.028;4.218;2022-08-03T14:08:43;33.50;60.70
62912;DHT22;49111;51.028;4.218;2022-08-03T14:11:10;33.70;61.20
62912;DHT22;49111;51.028;4.218;2022-08-03T14:13:36;33.80;61.40
62912;DHT22;49111;51.028;4.218;2022-08-03T14:16:02;33.90;60.80
62912;DHT22;49111;51.028;4.218;2022-08-03T14:18:28;33.90;60.10
62912;DHT22;49111;51.028;4.218;2022-08-03T14:20:54;34.00;59.50
62912;DHT22;49111;51.028;4.218;2022-08-03T14:23:20;33.90;58.80
62912;DHT22;49111;51.028;4.218;2022-08-03T14:25:46;33.80;59.20
62912;DHT22;49111;51.028;4.218;2022-08-03T14:28:11;33.50;60.90
62912;DHT22;49111;51.028;4.218;2022-08-03T14:30:37;33.50;62.00
62912;DHT22;49111;51.028;4.218;2022-08-03T14:33:03;33.70;58.90
62912;DHT22;49111;51.028;4.218;2022-08-03T14:35:29;33.90;59.90
62912;DHT22;49111;51.028;4.218;2022-08-03T14:37:54;34.20;60.20
62912;DHT22;49111;51.028;4.218;2022-08-03T14:40:20;34.50;57.40
62912;DHT22;49111;51.028;4.218;2022-08-03T14:42:47;34.70;58.40
62912;DHT22;49111;51.028;4.218;2022-08-03T14:45:13;34.70;58.80
62912;DHT22;49111;51.028;4.218;2022-08-03T14:47:39;34.50;58.30
62912;DHT22;49111;51.028;4.218;2022-08-03T14:50:06;34.40;58.30
62912;DHT22;49111;51.028;4.218;2022-08-03T14:52:32;34.30;59.00
62912;DHT22;49111;51.028;4.218;2022-08-03T14:54:59;34.40;58.90
62912;DHT22;49111;51.028;4.218;2022-08-03T14:57:25;34.30;57.80
62912;DHT22;49111;51.028;4.218;2022-08-03T14:59:51;34.40;56.90
62912;DHT22;49111;51.028;4.218;2022-08-03T15:02:17;34.50;56.10
62912;DHT22;49111;51.028;4.218;2022-08-03T15:04:43;34.50;57.00
62912;DHT22;49111;51.028;4.218;2022-08-03T15:07:09;34.50;58.60
62912;DHT22;49111;51.028;4.218;2022-08-03T15:09:35;34.60;57.90
62912;DHT22;49111;51.028;4.218;2022-08-03T15:12:03;34.60;57.90
62912;DHT22;49111;51.028;4.218;2022-08-03T15:14:30;34.80;56.00
62912;DHT22;49111;51.028;4.218;2022-08-03T15:16:56;35.10;57.10
62912;DHT22;49111;51.028;4.218;2022-08-03T15:19:21;35.10;56.00
62912;DHT22;49111;51.028;4.218;2022-08-03T15:21:47;35.30;55.20
62912;DHT22;49111;51.028;4.218;2022-08-03T15:24:13;35.30;56.10
62912;DHT22;49111;51.028;4.218;2022-08-03T15:26:39;35.30;55.90
62912;DHT22;49111;51.028;4.218;2022-08-03T15:29:04;35.20;54.50
62912;DHT22;49111;51.028;4.218;2022-08-03T15:31:32;35.20;54.40
62912;DHT22;49111;51.028;4.218;2022-08-03T15:33:58;35.20;55.00
62912;DHT22;49111;51.028;4.218;2022-08-03T15:36:24;35.00;56.10
62912;DHT22;49111;51.028;4.218;2022-08-03T15:38:51;34.60;55.50
62912;DHT22;49111;51.028;4.218;2022-08-03T15:41:17;34.40;57.10
62912;DHT22;49111;51.028;4.218;2022-08-03T15:43:44;34.30;55.50
62912;DHT22;49111;51.028;4.218;2022-08-03T15:46:11;34.50;56.00
62912;DHT22;49111;51.028;4.218;2022-08-03T15:48:39;34.50;57.00
62912;DHT22;49111;51.028;4.218;2022-08-03T15:51:06;34.60;55.60
62912;DHT22;49111;51.028;4.218;2022-08-03T15:53:32;34.70;55.00
62912;DHT22;49111;51.028;4.218;2022-08-03T15:55:59;34.90;55.20
62912;DHT22;49111;51.028;4.218;2022-08-03T15:58:25;35.00;55.30
62912;DHT22;49111;51.028;4.218;2022-08-03T16:00:58;35.10;54.90
62912;DHT22;49111;51.028;4.218;2022-08-03T16:03:24;35.20;56.70
62912;DHT22;49111;51.028;4.218;2022-08-03T16:05:50;35.40;55.30
62912;DHT22;49111;51.028;4.218;2022-08-03T16:08:16;35.60;54.20
62912;DHT22;49111;51.028;4.218;2022-08-03T16:10:42;35.70;53.70
62912;DHT22;49111;51.028;4.218;2022-08-03T16:13:08;35.80;53.90
62912;DHT22;49111;51.028;4.218;2022-08-03T16:15:34;35.70;55.70
62912;DHT22;49111;51.028;4.218;2022-08-03T16:17:59;35.70;54.40
62912;DHT22;49111;51.028;4.218;2022-08-03T16:20:25;35.50;55.90
62912;DHT22;49111;51.028;4.218;2022-08-03T16:22:51;35.40;54.20
62912;DHT22;49111;51.028;4.218;2022-08-03T16:25:17;35.20;54.50
62912;DHT22;49111;51.028;4.218;2022-08-03T16:27:43;35.00;56.80
62912;DHT22;49111;51.028;4.218;2022-08-03T16:30:11;34.90;56.10
62912;DHT22;49111;51.028;4.218;2022-08-03T16:32:37;34.80;56.80
62912;DHT22;49111;51.028;4.218;2022-08-03T16:35:05;34.70;58.00
62912;DHT22;49111;51.028;4.218;2022-08-03T16:37:31;34.70;57.10
62912;DHT22;49111;51.028;4.218;2022-08-03T16:39:57;34.50;58.30
62912;DHT22;49111;51.028;4.218;2022-08-03T16:42:23;34.50;57.70
62912;DHT22;49111;51.028;4.218;2022-08-03T16:44:49;34.70;56.50
62912;DHT22;49111;51.028;4.218;2022-08-03T16:47:14;34.80;57.90
62912;DHT22;49111;51.028;4.218;2022-08-03T16:49:40;35.00;55.70
62912;DHT22;49111;51.028;4.218;2022-08-03T16:52:06;35.20;54.00
62912;DHT22;49111;51.028;4.218;2022-08-03T16:54:32;35.30;55.40
62912;DHT22;49111;51.028;4.218;2022-08-03T16:56:57;35.40;54.30
62912;DHT22;49111;51.028;4.218;2022-08-03T16:59:23;35.20;55.20
62912;DHT22;49111;51.028;4.218;2022-08-03T17:01:49;35.00;56.60
62912;DHT22;49111;51.028;4.218;2022-08-03T17:04:15;35.00;57.50
62912;DHT22;49111;51.028;4.218;2022-08-03T17:06:41;35.10;55.40
62912;DHT22;49111;51.028;4.218;2022-08-03T17:09:10;34.90;56.10
62912;DHT22;49111;51.028;4.218;2022-08-03T17:11:42;34.90;56.00
62912;DHT22;49111;51.028;4.218;2022-08-03T17:14:09;34.90;56.80
62912;DHT22;49111;51.028;4.218;2022-08-03T17:16:37;34.90;56.60
62912;DHT22;49111;51.028;4.218;2022-08-03T17:19:06;34.90;56.10
62912;DHT22;49111;51.028;4.218;2022-08-03T17:21:36;34.80;54.80
62912;DHT22;49111;51.028;4.218;2022-08-03T17:24:50;34.70;54.80
62912;DHT22;49111;51.028;4.218;2022-08-03T17:27:13;34.70;54.90
62912;DHT22;49111;51.028;4.218;2022-08-03T17:29:39;34.50;54.90
62912;DHT22;49111;51.028;4.218;2022-08-03T17:32:06;34.50;54.80
62912;DHT22;49111;51.028;4.218;2022-08-03T17:34:31;34.50;54.70
62912;DHT22;49111;51.028;4.218;2022-08-03T17:36:58;34.50;55.90
62912;DHT22;49111;51.028;4.218;2022-08-03T17:39:24;34.60;55.40